Victoria, Argentina
Current Conditions -  °F | °C
As of 8:00 PM on Wednesday 26 Nov 2014 (Local Time) from SAAR Reporting Station
Clear Clear  
Wind Chill: 23°   Ceiling: Unl
Heat Index: 23°   Visibility: 6mi
Dew Point: 13°   Wind: 3mph
Humidity: 53%   Direction: 50°NE
Pressure: 29.91"   Gusts: NA
Location:  32.62°S, 60.17°W
Report Text: SAAR 262300Z 05003KT CAVOK 23/13 Q1013
Loading
Personal Weather Stations






























Interactive Weather Map New forecast layout! Learn more

10-Day Weather Forecast

Advertisements
Track Severe Weather on mobile